createdAt,value
2019-05-03T00:02:28.149Z,29.1
2019-05-03T00:05:35.542Z,29
2019-05-03T00:08:42.137Z,29.1
2019-05-03T00:11:48.386Z,29.3
2019-05-03T00:14:56.694Z,29.3
2019-05-03T00:18:03.068Z,29.5
2019-05-03T00:21:09.338Z,29.6
2019-05-03T00:24:17.318Z,29.7
2019-05-03T00:27:23.610Z,29.8
2019-05-03T00:30:31.824Z,29.9
2019-05-03T00:33:38.101Z,30
2019-05-03T00:36:46.093Z,30.1
2019-05-03T00:39:52.988Z,30.3
2019-05-03T00:42:59.255Z,30.4
2019-05-03T00:46:07.232Z,30.4
2019-05-03T00:49:16.489Z,30.4
2019-05-03T00:52:23.070Z,30.6
2019-05-03T00:55:29.237Z,30.6
2019-05-03T00:58:37.861Z,30.7
2019-05-03T01:01:45.856Z,30.7
2019-05-03T01:04:52.447Z,30.8
2019-05-03T01:07:58.577Z,30.9
2019-05-03T01:11:09.469Z,30.9
2019-05-03T01:14:17.683Z,31
2019-05-03T01:17:23.953Z,31.1
2019-05-03T01:20:31.962Z,31.1
2019-05-03T01:23:38.236Z,31.2
2019-05-03T01:26:46.544Z,31.2
2019-05-03T01:29:53.117Z,31.3
2019-05-03T01:32:59.256Z,31.3
2019-05-03T01:36:07.387Z,31.4
2019-05-03T01:39:15.798Z,31.4
2019-05-03T01:42:23.303Z,31.5
2019-05-03T01:45:29.490Z,31.5
2019-05-03T01:48:37.395Z,31.5
2019-05-03T01:51:45.587Z,31.6
2019-05-03T01:54:52.770Z,31.7
2019-05-03T01:57:59.140Z,31.7
2019-05-03T02:01:06.901Z,31.8
2019-05-03T02:04:13.212Z,31.8
2019-05-03T02:07:19.496Z,31.9
2019-05-03T02:10:28.014Z,31.9
2019-05-03T02:13:36.021Z,32
2019-05-03T02:16:42.681Z,32
2019-05-03T02:19:49.059Z,32
2019-05-03T02:22:57.220Z,32
2019-05-03T02:26:03.743Z,32.1
2019-05-03T02:29:13.295Z,32.1
2019-05-03T02:32:19.661Z,32.2
2019-05-03T02:35:29.014Z,32.2
2019-05-03T02:38:38.441Z,32.2
2019-05-03T02:41:58.023Z,32.3
2019-05-03T02:45:19.738Z,32.3
2019-05-03T02:48:26.330Z,32.4
2019-05-03T02:51:35.815Z,32.3
2019-05-03T02:54:42.233Z,32.4
2019-05-03T02:57:51.559Z,32.5
2019-05-03T03:01:01.024Z,32.5
2019-05-03T03:04:10.420Z,32.6
2019-05-03T03:07:19.687Z,32.6
2019-05-03T03:10:30.459Z,32.6
2019-05-03T03:13:38.904Z,32.6
2019-05-03T03:16:46.266Z,32.7
2019-05-03T03:19:55.109Z,32.6
2019-05-03T03:23:01.295Z,32.7
2019-05-03T03:26:10.602Z,32.7
2019-05-03T03:29:19.421Z,32.6
2019-05-03T03:32:30.312Z,32.6
2019-05-03T03:35:41.495Z,32.5
2019-05-03T03:38:55.938Z,32.5
2019-05-03T03:42:02.209Z,32.3
2019-05-03T03:45:10.929Z,32.4
2019-05-03T03:48:20.369Z,32.3
2019-05-03T03:51:27.148Z,32.3
2019-05-03T03:54:35.979Z,32.2
2019-05-03T03:57:42.241Z,32.3
2019-05-03T04:00:51.807Z,32.3
2019-05-03T04:04:00.510Z,32.2
2019-05-03T04:07:09.328Z,32.2
2019-05-03T04:10:16.331Z,32.2
2019-05-03T04:13:25.298Z,32.2
2019-05-03T04:16:31.909Z,32.1
2019-05-03T04:19:40.760Z,31.6
2019-05-03T04:22:49.893Z,31.3
2019-05-03T04:25:57.401Z,30.9
2019-05-03T04:29:06.322Z,30.9
2019-05-03T04:32:15.390Z,30.4
2019-05-03T04:35:21.849Z,30.4
2019-05-03T04:38:30.865Z,30.3
2019-05-03T04:41:39.176Z,30
2019-05-03T04:44:46.357Z,30
2019-05-03T04:47:52.554Z,29.9
2019-05-03T04:51:01.537Z,29.9
2019-05-03T04:54:10.393Z,29.9
2019-05-03T04:57:41.697Z,29.2
2019-05-03T05:00:58.425Z,28.7
2019-05-03T05:04:06.019Z,27.8
2019-05-03T05:04:48.754Z,30.1
2019-05-03T05:07:56.437Z,27.1
2019-05-03T05:09:16.157Z,28.6
